Time;durP1;ratioP1;P1;durP2;ratioP2;P2;SDS_P1;SDS_P2;PMS_P1;PMS_P2;Temp;Humidity;BMP_temperature;BMP_pressure;BME280_temperature;BME280_humidity;BME280_pressure;Samples;Min_cycle;Max_cycle;Signal;HPM_P1;HPM_P2
2022/06/22 00:01:33;;;;;;;6.90;5.68;;;14.90;99.90;;;;;;5003467;28;20505;-71
2022/06/22 00:04:00;;;;;;;6.60;5.47;;;14.90;99.90;;;;;;5006542;28;20093;-71
2022/06/22 00:06:29;;;;;;;7.25;5.82;;;15.00;99.90;;;;;;5004525;28;20425;-71
2022/06/22 00:08:55;;;;;;;7.50;5.85;;;14.90;99.90;;;;;;5007077;28;20046;-71
2022/06/22 00:11:21;;;;;;;9.43;5.95;;;14.90;99.90;;;;;;5017907;28;20045;-71
2022/06/22 00:13:59;;;;;;;7.43;6.18;;;15.10;99.90;;;;;;5008796;28;20478;-71
2022/06/22 00:16:29;;;;;;;7.13;5.70;;;14.80;99.90;;;;;;5007360;28;20050;-71
2022/06/22 00:18:56;;;;;;;7.03;5.82;;;14.70;99.90;;;;;;5014798;28;20057;-71
2022/06/22 00:21:28;;;;;;;7.13;6.05;;;14.80;99.90;;;;;;5010866;28;20050;-71
2022/06/22 00:23:57;;;;;;;9.95;6.80;;;14.80;99.90;;;;;;5009460;28;20489;-71
2022/06/22 00:26:22;;;;;;;7.60;6.10;;;14.70;99.90;;;;;;5013143;28;21495;-71
2022/06/22 00:28:54;;;;;;;7.07;6.38;;;14.60;99.90;;;;;;5004055;28;20045;-71
2022/06/22 00:31:39;;;;;;;7.45;6.45;;;14.60;99.90;;;;;;5015871;28;20347;-71
2022/06/22 00:34:05;;;;;;;8.00;6.75;;;14.50;99.90;;;;;;5014349;28;20398;-72
2022/06/22 00:37:00;;;;;;;7.88;7.05;;;14.50;99.90;;;;;;5009504;28;20044;-71
2022/06/22 00:39:29;;;;;;;8.25;7.32;;;14.50;99.90;;;;;;4995889;28;20057;-71
2022/06/22 00:42:00;;;;;;;7.97;6.97;;;14.40;99.90;;;;;;5011449;28;20041;-71
2022/06/22 00:44:29;;;;;;;8.00;6.97;;;14.30;99.90;;;;;;5010736;28;20049;-71
2022/06/22 00:47:10;;;;;;;9.98;7.03;;;14.40;99.90;;;;;;5006650;28;20204;-71
2022/06/22 00:49:42;;;;;;;8.07;6.78;;;14.30;99.90;;;;;;5026394;28;20046;-71
2022/06/22 00:52:08;;;;;;;10.25;7.15;;;14.30;99.90;;;;;;5018307;28;20049;-71
2022/06/22 00:54:36;;;;;;;9.25;7.20;;;14.30;99.90;;;;;;5009170;28;20064;-71
2022/06/22 00:57:12;;;;;;;8.30;6.82;;;14.30;99.90;;;;;;5006764;28;20041;-71
2022/06/22 01:00:00;;;;;;;9.52;7.25;;;14.30;99.90;;;;;;5008570;28;20452;-71
2022/06/22 01:02:53;;;;;;;7.35;6.57;;;14.20;99.90;;;;;;5004067;28;20125;-71
2022/06/22 01:05:30;;;;;;;9.52;6.95;;;14.10;99.90;;;;;;5010322;28;20046;-71
2022/06/22 01:08:24;;;;;;;8.25;6.80;;;14.20;99.90;;;;;;5005825;28;20469;-71
2022/06/22 01:11:04;;;;;;;8.15;6.57;;;14.10;99.90;;;;;;5006959;28;20071;-71
2022/06/22 01:13:41;;;;;;;7.95;6.65;;;14.00;99.90;;;;;;5012313;28;20131;-72
2022/06/22 01:16:23;;;;;;;8.15;6.40;;;14.00;99.90;;;;;;5010870;28;20486;-72
2022/06/22 01:18:59;;;;;;;7.68;6.32;;;14.00;99.90;;;;;;5003617;28;20402;-71
2022/06/22 01:21:40;;;;;;;9.85;7.40;;;13.90;99.90;;;;;;5009077;28;20042;-71
2022/06/22 01:24:18;;;;;;;8.05;7.05;;;13.90;99.90;;;;;;5012987;28;20481;-72
2022/06/22 01:26:47;;;;;;;9.98;6.70;;;13.90;99.90;;;;;;5010673;28;20042;-71
2022/06/22 01:29:24;;;;;;;8.70;6.20;;;13.90;99.90;;;;;;5011613;28;20081;-71
2022/06/22 01:31:58;;;;;;;7.85;6.30;;;13.90;99.90;;;;;;5013913;28;20457;-71
2022/06/22 01:34:28;;;;;;;7.00;6.28;;;13.90;99.90;;;;;;5008505;28;20057;-71
2022/06/22 01:37:00;;;;;;;8.18;7.38;;;13.90;99.90;;;;;;5018068;28;20054;-71
2022/06/22 01:39:26;;;;;;;9.00;6.43;;;13.90;99.90;;;;;;5019874;28;20061;-71
2022/06/22 01:42:07;;;;;;;8.95;6.70;;;13.80;99.90;;;;;;5011399;28;20034;-71
2022/06/22 01:45:03;;;;;;;8.98;6.82;;;13.80;99.90;;;;;;5007788;28;20068;-71
2022/06/22 01:47:46;;;;;;;7.30;6.60;;;13.80;99.90;;;;;;5014930;28;20509;-71
2022/06/22 01:50:25;;;;;;;8.23;6.80;;;13.70;99.90;;;;;;5027646;28;20536;-71
2022/06/22 01:53:01;;;;;;;7.47;6.78;;;13.80;99.90;;;;;;5008737;28;20049;-72
2022/06/22 01:55:59;;;;;;;7.90;6.22;;;13.70;99.90;;;;;;5009341;28;20049;-71
2022/06/22 01:58:39;;;;;;;8.65;6.85;;;13.80;99.90;;;;;;4995628;28;20760;-71
2022/06/22 02:01:54;;;;;;;7.43;6.10;;;13.70;99.90;;;;;;5004783;28;20050;-71
2022/06/22 02:04:38;;;;;;;9.10;6.85;;;13.60;99.90;;;;;;4989114;28;20087;-71
2022/06/22 02:10:10;;;;;;;7.78;6.75;;;13.50;99.90;;;;;;5002101;28;20045;-71
2022/06/22 02:12:41;;;;;;;7.60;6.80;;;13.50;99.90;;;;;;5009428;28;20042;-71
2022/06/22 02:15:13;;;;;;;7.78;6.97;;;13.50;99.90;;;;;;5005909;28;20050;-71
2022/06/22 02:17:41;;;;;;;7.75;6.95;;;13.50;99.90;;;;;;5007809;28;20073;-71
2022/06/22 02:20:19;;;;;;;7.78;6.97;;;13.50;99.90;;;;;;5006046;28;20045;-71
2022/06/22 02:22:47;;;;;;;7.95;6.60;;;13.40;99.90;;;;;;5008000;28;20050;-71
2022/06/22 02:25:14;;;;;;;7.53;6.75;;;13.00;99.90;;;;;;5006077;28;20041;-71
2022/06/22 02:27:40;;;;;;;7.32;6.63;;;13.60;99.90;;;;;;5006806;28;20437;-71
2022/06/22 02:30:07;;;;;;;8.90;7.40;;;13.40;99.90;;;;;;5004742;28;20045;-71
2022/06/22 02:32:42;;;;;;;8.70;7.57;;;13.30;99.90;;;;;;5007534;28;20046;-71
2022/06/22 02:35:10;;;;;;;9.38;7.47;;;13.10;99.90;;;;;;5005049;28;20049;-71
2022/06/22 02:37:44;;;;;;;8.55;7.65;;;13.00;99.90;;;;;;5006802;28;20062;-71
2022/06/22 02:40:15;;;;;;;12.32;7.93;;;13.20;99.90;;;;;;5005700;28;20513;-71
2022/06/22 02:45:26;;;;;;;8.85;7.88;;;13.40;99.90;;;;;;5006899;28;20077;-71
2022/06/22 02:48:22;;;;;;;7.68;6.95;;;13.50;99.90;;;;;;5007802;28;20053;-71
2022/06/22 02:51:10;;;;;;;9.75;7.75;;;13.20;99.90;;;;;;5012104;28;20053;-71
2022/06/22 02:53:38;;;;;;;9.68;7.78;;;13.20;99.90;;;;;;5007621;28;20045;-71
2022/06/22 02:56:07;;;;;;;9.80;8.18;;;13.10;99.90;;;;;;5006657;28;20049;-71
2022/06/22 02:58:37;;;;;;;10.48;7.75;;;13.10;99.90;;;;;;5007870;28;20450;-71
2022/06/22 03:01:13;;;;;;;10.20;7.60;;;13.10;99.90;;;;;;5012160;28;20050;-71
2022/06/22 03:04:10;;;;;;;9.20;8.10;;;13.10;99.90;;;;;;5007504;28;20160;-71
2022/06/22 03:06:41;;;;;;;9.68;8.07;;;13.10;99.90;;;;;;5002603;28;20073;-71
2022/06/22 03:09:08;;;;;;;10.02;8.82;;;13.10;99.90;;;;;;5006338;28;20046;-72
2022/06/22 03:11:38;;;;;;;10.00;9.00;;;13.10;99.90;;;;;;5005988;28;20046;-71
2022/06/22 03:14:13;;;;;;;10.00;9.00;;;13.20;99.90;;;;;;5007312;28;20046;-71
2022/06/22 03:16:42;;;;;;;10.45;8.43;;;13.10;99.90;;;;;;5006013;28;20444;-71
2022/06/22 03:19:24;;;;;;;9.25;8.35;;;13.10;99.90;;;;;;5006494;28;20050;-71
2022/06/22 03:21:50;;;;;;;8.83;8.03;;;13.00;99.90;;;;;;5008388;28;20062;-71
2022/06/22 03:24:48;;;;;;;8.68;7.85;;;13.00;99.90;;;;;;5009996;28;20037;-71
2022/06/22 03:27:25;;;;;;;8.43;7.63;;;13.00;99.90;;;;;;5005972;28;20045;-71
2022/06/22 03:30:02;;;;;;;8.60;7.80;;;13.00;99.90;;;;;;5005973;28;20405;-71
2022/06/22 03:32:40;;;;;;;9.25;8.25;;;13.00;99.90;;;;;;5013014;28;20041;-71
2022/06/22 03:35:20;;;;;;;9.45;8.45;;;13.00;99.90;;;;;;5020846;28;20077;-71
2022/06/22 03:37:52;;;;;;;9.57;8.00;;;13.30;99.90;;;;;;5006859;28;20066;-71
2022/06/22 03:40:24;;;;;;;9.15;8.23;;;13.00;99.90;;;;;;5003169;28;20077;-71
2022/06/22 03:42:59;;;;;;;9.40;8.40;;;13.00;99.90;;;;;;5005398;28;20042;-71
2022/06/22 03:45:31;;;;;;;11.63;9.38;;;12.60;99.90;;;;;;5003507;28;20049;-71
2022/06/22 03:48:26;;;;;;;10.55;9.45;;;13.00;99.90;;;;;;5003721;28;20142;-71
2022/06/22 03:51:15;;;;;;;11.48;9.85;;;13.00;99.90;;;;;;5012107;28;20053;-71
2022/06/22 03:53:50;;;;;;;10.90;9.80;;;12.80;99.90;;;;;;5003959;28;20061;-71
2022/06/22 03:56:19;;;;;;;12.27;9.98;;;13.00;99.90;;;;;;5007147;28;20335;-71
2022/06/22 03:58:48;;;;;;;13.77;10.18;;;13.00;99.90;;;;;;5004542;28;20165;-71
2022/06/22 04:01:15;;;;;;;10.82;9.32;;;13.10;99.90;;;;;;5002128;28;20050;-71
2022/06/22 04:03:41;;;;;;;12.35;10.35;;;13.10;99.90;;;;;;5013570;28;20105;-71
2022/06/22 04:06:15;;;;;;;11.38;9.48;;;13.40;99.90;;;;;;5014751;28;20077;-71
2022/06/22 04:08:41;;;;;;;11.35;9.18;;;13.20;99.90;;;;;;5006089;28;20029;-71
2022/06/22 04:11:14;;;;;;;10.02;8.98;;;13.20;99.90;;;;;;5005257;28;20104;-71
2022/06/22 04:13:47;;;;;;;10.80;9.52;;;13.50;99.90;;;;;;5006352;28;20405;-71
2022/06/22 04:16:21;;;;;;;10.05;8.90;;;13.30;99.90;;;;;;4999409;28;20053;-71
2022/06/22 04:19:00;;;;;;;10.18;8.77;;;13.20;99.90;;;;;;5000890;28;20084;-71
2022/06/22 04:21:42;;;;;;;10.13;8.90;;;13.30;99.90;;;;;;5006422;28;20061;-71
2022/06/22 04:24:16;;;;;;;9.43;8.52;;;13.30;99.90;;;;;;5008836;28;20107;-71
2022/06/22 04:26:51;;;;;;;10.10;8.65;;;13.30;99.90;;;;;;5016769;28;20121;-71
2022/06/22 04:29:39;;;;;;;10.25;8.82;;;13.40;99.90;;;;;;5005219;28;20050;-71
2022/06/22 04:32:24;;;;;;;10.38;9.32;;;13.40;99.90;;;;;;5008401;28;20390;-71
2022/06/22 04:35:12;;;;;;;11.73;9.65;;;13.30;99.90;;;;;;5000480;28;20049;-71
2022/06/22 04:37:45;;;;;;;10.63;9.55;;;13.40;99.90;;;;;;5007435;28;20074;-71
2022/06/22 04:40:18;;;;;;;10.75;9.57;;;13.50;99.90;;;;;;5005404;28;20045;-71
2022/06/22 04:42:44;;;;;;;11.15;9.25;;;13.50;99.90;;;;;;5000437;28;20076;-71
2022/06/22 04:45:34;;;;;;;10.65;9.55;;;13.50;99.90;;;;;;5005789;28;20084;-71
2022/06/22 04:48:07;;;;;;;13.32;9.88;;;13.60;99.90;;;;;;5006517;28;20081;-71
2022/06/22 04:50:36;;;;;;;11.20;9.90;;;13.80;99.90;;;;;;5003834;28;20096;-71
2022/06/22 04:53:02;;;;;;;10.48;9.13;;;13.90;99.90;;;;;;5008583;28;20124;-71
2022/06/22 04:55:38;;;;;;;10.73;9.63;;;;;;;;;;5021232;28;20101;-71
2022/06/22 04:58:12;;;;;;;9.50;8.60;;;13.80;99.90;;;;;;5008176;28;20552;-71
2022/06/22 05:00:39;;;;;;;9.88;8.88;;;14.00;99.90;;;;;;5004649;28;20042;-71
2022/06/22 05:03:12;;;;;;;11.90;9.00;;;14.10;99.90;;;;;;5009855;28;20042;-71
2022/06/22 05:05:38;;;;;;;11.75;8.27;;;14.10;99.90;;;;;;5011276;28;20076;-71
2022/06/22 05:08:07;;;;;;;13.15;10.52;;;;;;;;;;5010135;28;20034;-71
2022/06/22 05:10:35;;;;;;;11.48;9.18;;;14.00;99.90;;;;;;5004028;28;20054;-71
2022/06/22 05:13:12;;;;;;;10.55;9.27;;;14.20;99.90;;;;;;5012619;28;20045;-71
2022/06/22 05:15:40;;;;;;;11.68;9.13;;;14.30;99.90;;;;;;5013403;28;20084;-71
2022/06/22 05:18:13;;;;;;;9.45;8.50;;;14.60;99.90;;;;;;5008017;28;20129;-71
2022/06/22 05:20:49;;;;;;;12.20;9.57;;;;;;;;;;5005244;28;20038;-71
2022/06/22 05:23:18;;;;;;;13.30;9.90;;;;;;;;;;5010434;28;20088;-71
2022/06/22 05:25:47;;;;;;;13.02;9.15;;;;;;;;;;5009325;28;20520;-71
2022/06/22 05:28:16;;;;;;;11.15;9.13;;;;;;;;;;5009284;28;20046;-71
2022/06/22 05:30:45;;;;;;;12.60;9.30;;;;;;;;;;5013470;28;20073;-71
2022/06/22 05:33:15;;;;;;;10.65;9.57;;;;;;;;;;5013187;28;20046;-71
2022/06/22 05:35:46;;;;;;;12.02;9.30;;;;;;;;;;5013632;28;20050;-72
2022/06/22 05:38:12;;;;;;;11.57;9.82;;;;;;;;;;5008394;28;20477;-71
2022/06/22 05:40:40;;;;;;;11.82;10.63;;;;;;;;;;5010434;28;20493;-71
2022/06/22 05:43:06;;;;;;;11.80;9.88;;;;;;;;;;5006145;28;20417;-72
2022/06/22 05:45:36;;;;;;;12.10;10.88;;;;;;;;;;5016113;28;20038;-71
2022/06/22 05:48:02;;;;;;;11.23;9.98;;;;;;;;;;5010592;28;20426;-71
2022/06/22 05:50:28;;;;;;;15.52;10.65;;;;;;;;;;5009242;28;20057;-72
2022/06/22 05:53:04;;;;;;;12.77;10.98;;;;;;;;;;5010744;28;20397;-71
2022/06/22 05:55:36;;;;;;;12.02;10.43;;;;;;;;;;5008952;28;20466;-72
2022/06/22 05:58:05;;;;;;;11.88;9.70;;;;;;;;;;5012803;28;20141;-71
2022/06/22 06:00:39;;;;;;;12.10;9.52;;;;;;;;;;5008561;28;20046;-71
2022/06/22 06:03:15;;;;;;;13.15;10.77;;;;;;;;;;5004375;28;20050;-71
2022/06/22 06:05:42;;;;;;;11.52;10.32;;;;;;;;;;5008602;28;20038;-72
2022/06/22 06:08:28;;;;;;;11.00;9.18;;;;;;;;;;5007680;28;20458;-72
2022/06/22 06:10:55;;;;;;;13.57;9.40;;;;;;;;;;5006753;28;20129;-72
2022/06/22 06:13:24;;;;;;;9.15;7.97;;;;;;;;;;5008046;28;20092;-72
2022/06/22 06:15:52;;;;;;;12.65;8.93;;;;;;;;;;5011015;28;20046;-72
2022/06/22 06:18:20;;;;;;;9.30;8.05;;;;;;;;;;5002076;28;20429;-72
2022/06/22 06:20:48;;;;;;;11.55;8.52;;;;;;;;;;5009538;28;20042;-72
2022/06/22 06:23:22;;;;;;;11.35;8.70;;;;;;;;;;5009739;28;20041;-73
2022/06/22 06:28:42;;;;;;;9.23;7.78;;;;;;;;;;5007352;28;20054;-72
2022/06/22 06:31:13;;;;;;;9.98;7.78;;;;;;;;;;5006299;28;20041;-73
2022/06/22 06:33:39;;;;;;;8.85;6.38;;;;;;;;;;5010389;28;20123;-73
2022/06/22 06:36:05;;;;;;;10.30;7.95;;;;;;;;;;5010777;28;20068;-72
2022/06/22 06:38:31;;;;;;;11.00;8.40;;;;;;;;;;5009952;28;20478;-72
2022/06/22 06:41:03;;;;;;;9.00;7.15;;;;;;;;;;5007734;28;20041;-72
2022/06/22 06:43:38;;;;;;;10.55;8.00;;;;;;;;;;5005996;28;20053;-73
2022/06/22 06:46:10;;;;;;;11.90;9.23;;;;;;;;;;5004835;28;20133;-72
2022/06/22 06:48:37;;;;;;;11.65;8.45;;;;;;;;;;5023804;28;20144;-72
2022/06/22 06:51:05;;;;;;;11.63;8.15;;;;;;;;;;5009461;28;20500;-73
2022/06/22 06:53:47;;;;;;;11.15;8.70;;;;;;;;;;5007785;28;20093;-73
2022/06/22 06:56:21;;;;;;;10.75;8.00;;;;;;;;;;5006804;28;20046;-73
2022/06/22 06:58:52;;;;;;;12.65;7.65;;;;;;;;;;5007722;28;20049;-73
2022/06/22 07:01:23;;;;;;;10.57;7.22;;;;;;;;;;5005877;28;20469;-73
2022/06/22 07:03:51;;;;;;;11.90;7.13;;;;;;;;;;5011725;28;20037;-73
2022/06/22 07:06:17;;;;;;;10.55;7.22;;;;;;;;;;5011368;28;20057;-73
2022/06/22 07:08:48;;;;;;;8.73;7.50;;;;;;;;;;5009528;28;20057;-73
2022/06/22 07:11:21;;;;;;;11.23;7.50;;;;;;;;;;5001408;28;20160;-73
2022/06/22 07:13:51;;;;;;;10.85;7.70;;;;;;;;;;5006546;28;20394;-73
2022/06/22 07:16:22;;;;;;;9.23;6.80;;;;;;;;;;5007973;28;20438;-73
2022/06/22 07:18:50;;;;;;;9.32;7.18;;;;;;;;;;5003981;28;20061;-73
2022/06/22 07:21:27;;;;;;;8.48;6.80;;;;;;;;;;5007212;28;20052;-74
2022/06/22 07:23:54;;;;;;;10.95;7.40;;;;;;;;;;5004339;28;20141;-73
2022/06/22 07:26:29;;;;;;;10.55;7.30;;;;;;;;;;5008368;28;20053;-73
2022/06/22 07:29:00;;;;;;;9.95;7.13;;;;;;;;;;5006195;28;20113;-73
2022/06/22 07:31:36;;;;;;;9.65;6.03;;;;;;;;;;5008497;28;20041;-73
2022/06/22 07:34:05;;;;;;;9.90;5.82;;;;;;;;;;5007190;28;20512;-73
2022/06/22 07:36:37;;;;;;;10.63;6.45;;;;;;;;;;5006813;28;20120;-73
2022/06/22 07:39:03;;;;;;;10.40;6.13;;;;;;;;;;5008066;28;20556;-74
2022/06/22 07:41:31;;;;;;;7.10;5.50;;;;;;;;;;5005459;28;20122;-73
2022/06/22 07:44:01;;;;;;;9.93;5.60;;;;;;;;;;5009510;28;20049;-73
2022/06/22 07:46:47;;;;;;;7.80;6.22;;;;;;;;;;5007474;28;20048;-73
2022/06/22 07:49:17;;;;;;;10.00;5.50;;;;;;;;;;5010119;28;20039;-74
2022/06/22 07:51:46;;;;;;;8.55;6.40;;;;;;;;;;5001136;28;20512;-73
2022/06/22 07:54:12;;;;;;;7.85;6.20;;;;;;;;;;5007540;28;20528;-73
2022/06/22 07:56:38;;;;;;;9.07;6.47;;;;;;;;;;5009236;28;20038;-74
2022/06/22 07:59:11;;;;;;;9.90;6.05;;;;;;;;;;5006945;28;20077;-74
2022/06/22 08:01:39;;;;;;;10.27;5.88;;;;;;;;;;5007451;28;20595;-73
2022/06/22 08:04:20;;;;;;;14.13;5.60;;;;;;;;;;5009310;28;20045;-73
2022/06/22 08:06:59;;;;;;;8.85;5.65;;;;;;;;;;5006680;28;20508;-74
2022/06/22 08:09:44;;;;;;;8.65;5.53;;;;;;;;;;5008216;28;20054;-74
2022/06/22 08:12:16;;;;;;;8.63;5.60;;;;;;;;;;5006457;28;20449;-74
2022/06/22 08:14:44;;;;;;;10.32;5.50;;;;;;;;;;5008303;28;20050;-74
2022/06/22 08:17:20;;;;;;;7.28;5.40;;;;;;;;;;5007571;28;20537;-74
2022/06/22 08:19:46;;;;;;;9.43;5.20;;;;;;;;;;5016684;28;20042;-73
2022/06/22 08:22:12;;;;;;;7.25;4.45;;;;;;;;;;5007744;28;20042;-74
2022/06/22 08:24:41;;;;;;;8.13;5.07;;;;;;;;;;5009804;28;20046;-74
2022/06/22 08:27:09;;;;;;;12.48;4.82;;;;;;;;;;5006813;28;20053;-73
2022/06/22 08:29:35;;;;;;;6.50;4.47;;;;;;;;;;5008124;28;20497;-73
2022/06/22 08:32:07;;;;;;;5.35;4.22;;;;;;;;;;5010975;28;20544;-74
2022/06/22 08:34:35;;;;;;;5.68;4.38;;;;;;;;;;5010773;28;20088;-74
2022/06/22 08:37:06;;;;;;;9.07;5.07;;;;;;;;;;5012272;28;20386;-74
2022/06/22 08:39:52;;;;;;;5.97;4.28;;;;;;;;;;5012461;28;20049;-74
2022/06/22 08:42:37;;;;;;;6.75;3.63;;;;;;;;;;5009279;28;20038;-74
2022/06/22 08:45:06;;;;;;;9.18;4.20;;;;;;;;;;5012404;28;20042;-73
2022/06/22 08:47:32;;;;;;;7.50;4.10;;;;;;;;;;5012085;28;20050;-73
2022/06/22 08:50:10;;;;;;;9.07;4.43;;;;;;;;;;5012200;28;20107;-73
2022/06/22 08:52:58;;;;;;;6.00;4.18;;;;;;;;;;5010971;28;20045;-73
2022/06/22 08:55:24;;;;;;;6.45;4.32;;;;;;;;;;5011743;28;20060;-74
2022/06/22 08:57:50;;;;;;;6.65;4.20;;;;;;;;;;5012658;28;20104;-73
2022/06/22 09:00:16;;;;;;;9.07;4.75;;;;;;;;;;5010759;28;20042;-73
2022/06/22 09:03:04;;;;;;;9.32;4.50;;;;;;;;;;5008359;28;20128;-73
2022/06/22 09:05:33;;;;;;;9.18;4.95;;;;;;;;;;5010518;28;20391;-73
2022/06/22 09:08:02;;;;;;;8.18;4.70;;;;;;;;;;5011500;28;20061;-73
2022/06/22 09:10:36;;;;;;;9.60;4.32;;;;;;;;;;5010216;28;20485;-73
2022/06/22 09:13:21;;;;;;;10.77;4.82;;;;;;;;;;5007681;28;20077;-74
2022/06/22 09:15:53;;;;;;;6.78;4.15;;;;;;;;;;5007435;28;20129;-73
2022/06/22 09:18:37;;;;;;;9.45;4.07;;;;;;;;;;5011048;28;20509;-74
2022/06/22 09:21:06;;;;;;;6.35;3.90;;;;;;;;;;5010321;28;20053;-73
2022/06/22 09:23:39;;;;;;;6.20;4.10;;;;;;;;;;5010607;28;20070;-74
2022/06/22 09:26:08;;;;;;;8.95;4.13;;;;;;;;;;5012145;28;20038;-73
2022/06/22 09:28:37;;;;;;;5.93;3.42;;;;;;;;;;5010316;28;20053;-74
2022/06/22 09:31:18;;;;;;;5.18;3.55;;;;;;;;;;5009695;28;20053;-74
2022/06/22 09:33:52;;;;;;;3.60;3.20;;;;;;;;;;5004978;28;20053;-73
2022/06/22 09:36:18;;;;;;;6.53;3.53;;;;;;;;;;5011045;28;20489;-73
2022/06/22 09:39:10;;;;;;;7.50;3.88;;;;;;;;;;5011355;28;20094;-73
2022/06/22 09:41:47;;;;;;;5.35;2.97;;;;;;;;;;5010213;28;20189;-73
2022/06/22 09:44:16;;;;;;;5.72;3.50;;;;;;;;;;5008588;28;20073;-73
2022/06/22 09:46:51;;;;;;;6.70;3.40;;;;;;;;;;5012640;28;20038;-73
2022/06/22 09:49:36;;;;;;;6.55;3.58;;;;;;;;;;5009976;28;20041;-74
2022/06/22 09:52:21;;;;;;;4.18;3.30;;;;;;;;;;5006552;28;20049;-73
2022/06/22 09:57:46;;;;;;;6.32;3.53;;;;;;;;;;5010790;28;20449;-74
2022/06/22 10:00:19;;;;;;;5.00;3.65;;;;;;;;;;5010265;28;20398;-74
2022/06/22 10:02:55;;;;;;;8.68;3.92;;;;;;;;;;5010300;28;20073;-74
2022/06/22 10:05:30;;;;;;;8.93;3.97;;;;;;;;;;5010540;28;20056;-74
2022/06/22 10:08:15;;;;;;;7.75;3.80;;;;;;;;;;5012010;28;20493;-73
2022/06/22 10:10:44;;;;;;;8.02;4.80;;;;;;;;;;5010137;28;20129;-74
2022/06/22 10:13:22;;;;;;;24.30;5.65;;;;;;;;;;5006075;28;20054;-74
2022/06/22 10:16:07;;;;;;;9.00;4.32;;;;;;;;;;5005994;28;20055;-74
2022/06/22 10:18:45;;;;;;;6.35;4.00;;;;;;;;;;5009326;28;20061;-73
2022/06/22 10:21:17;;;;;;;9.35;4.35;;;;;;;;;;5006393;28;20108;-74
2022/06/22 10:23:57;;;;;;;7.47;4.28;;;;;;;;;;5009540;28;20055;-74
2022/06/22 10:26:35;;;;;;;8.15;4.15;;;;;;;;;;5009161;28;20981;-74
2022/06/22 10:29:09;;;;;;;6.50;3.90;;;;;;;;;;5010099;28;20473;-73
2022/06/22 10:31:44;;;;;;;5.90;4.20;;;;;;;;;;5011164;28;20107;-74
2022/06/22 10:34:16;;;;;;;7.47;4.22;;;;;;;;;;5006502;28;20095;-73
2022/06/22 10:37:02;;;;;;;7.03;4.03;;;;;;;;;;5011630;28;20038;-74
2022/06/22 10:39:40;;;;;;;6.32;4.07;;;;;;;;;;5007345;28;20042;-74
2022/06/22 10:45:28;;;;;;;5.95;4.63;;;;;;;;;;5007802;28;20076;-74
2022/06/22 10:48:12;;;;;;;7.15;4.00;;;;;;;;;;4999218;28;20044;-74
2022/06/22 10:50:57;;;;;;;5.40;4.00;;;;;;;;;;5004203;28;20057;-75
2022/06/22 10:53:32;;;;;;;6.22;4.22;;;;;;;;;;5008485;28;20088;-74
2022/06/22 10:56:11;;;;;;;7.47;4.60;;;;;;;;;;5006059;28;20120;-74
2022/06/22 10:58:46;;;;;;;7.03;3.92;;;;;;;;;;5010593;28;20053;-74
2022/06/22 11:01:20;;;;;;;7.28;4.15;;;;;;;;;;5008126;28;20038;-74
2022/06/22 11:03:59;;;;;;;7.63;3.92;;;;;;;;;;5005289;28;20439;-74
2022/06/22 11:06:31;;;;;;;6.70;3.95;;;;;;;;;;5009425;28;20038;-74
2022/06/22 11:09:16;;;;;;;6.63;3.75;;;;;;;;;;5009231;28;20041;-74
2022/06/22 11:11:54;;;;;;;5.60;4.00;;;;;;;;;;5005370;28;20103;-73
2022/06/22 11:14:38;;;;;;;6.28;3.90;;;;;;;;;;5004293;28;20040;-74
2022/06/22 11:17:19;;;;;;;7.55;4.15;;;;;;;;;;5005704;28;20041;-74
2022/06/22 11:19:48;;;;;;;8.23;4.32;;;;;;;;;;5007746;28;20497;-74
2022/06/22 11:22:20;;;;;;;10.68;4.47;;;;;;;;;;5008841;28;20061;-75
2022/06/22 11:24:59;;;;;;;7.43;4.47;;;;;;;;;;5002408;28;20188;-74
2022/06/22 11:33:22;;;;;;;6.70;4.78;;;;;;;;;;5002637;28;19928;-74
2022/06/22 11:36:03;;;;;;;7.15;4.35;;;;;;;;;;5009400;28;20048;-74
2022/06/22 11:38:48;;;;;;;7.57;4.25;;;;;;;;;;5008646;28;20042;-75
2022/06/22 11:41:33;;;;;;;8.07;4.50;;;;;;;;;;5007971;28;20042;-74
2022/06/22 11:44:18;;;;;;;7.65;4.45;;;;;;;;;;5004576;28;20440;-74
2022/06/22 11:46:52;;;;;;;6.43;4.28;;;;;;;;;;5008951;28;20077;-74
2022/06/22 11:49:37;;;;;;;8.55;4.72;;;;;;;;;;5010066;28;20130;-74
2022/06/22 11:52:26;;;;;;;7.18;4.35;;;;;;;;;;5005823;28;20385;-74
2022/06/22 11:54:54;;;;;;;6.35;4.13;;;;;;;;;;5008810;28;20046;-74
2022/06/22 11:57:36;;;;;;;6.80;4.20;;;;;;;;;;5005038;28;20105;-74
2022/06/22 12:00:06;;;;;;;7.43;4.22;;;;;;;;;;5009181;28;20038;-74
2022/06/22 12:02:41;;;;;;;6.55;4.13;;;;;;;;;;5007673;28;20077;-74
2022/06/22 12:05:14;;;;;;;7.57;4.30;;;;;;;;;;5006202;28;20077;-75
2022/06/22 12:08:03;;;;;;;9.73;4.10;;;;;;;;;;5007611;28;20049;-74
2022/06/22 12:10:37;;;;;;;7.40;3.70;;;;;;;;;;5013049;28;20050;-74
2022/06/22 12:13:12;;;;;;;5.32;4.30;;;;;;;;;;5010259;28;20101;-73
2022/06/22 12:15:47;;;;;;;6.95;4.32;;;;;;;;;;5012101;28;20374;-74
2022/06/22 12:18:24;;;;;;;6.55;4.68;;;;;;;;;;5015637;28;20054;-74
2022/06/22 12:21:02;;;;;;;7.60;4.50;;;;;;;;;;5004520;28;20066;-74
2022/06/22 12:23:33;;;;;;;8.00;4.30;;;;;;;;;;5011501;28;20450;-74
2022/06/22 12:26:02;;;;;;;7.47;4.18;;;;;;;;;;5009839;28;20042;-74
2022/06/22 12:28:31;;;;;;;8.77;4.88;;;;;;;;;;5010109;28;20049;-73
2022/06/22 12:31:16;;;;;;;7.43;4.88;;;;;;;;;;5010397;28;20405;-74
2022/06/22 12:33:45;;;;;;;7.97;4.53;;;;;;;;;;5010865;28;20443;-74
2022/06/22 12:36:32;;;;;;;6.90;4.32;;;;;;;;;;5010672;28;20073;-74
2022/06/22 12:39:05;;;;;;;7.55;4.30;;;;;;;;;;5012891;28;20046;-74
2022/06/22 12:41:31;;;;;;;4.63;4.15;;;;;;;;;;5010257;28;20085;-74
2022/06/22 12:43:57;;;;;;;5.38;3.97;;;;;;;;;;5013874;28;20077;-75
2022/06/22 12:46:23;;;;;;;5.40;3.97;;;;;;;;;;5011790;28;20056;-74
2022/06/22 12:49:01;;;;;;;8.05;4.38;;;;;;;;;;5010473;28;20065;-74
2022/06/22 12:51:32;;;;;;;5.15;3.72;;;;;;;;;;5009075;28;20509;-74
2022/06/22 12:54:02;;;;;;;4.80;3.65;;;;;;;;;;5010766;28;20050;-75
2022/06/22 12:56:41;;;;;;;5.57;3.80;;;;;;;;;;5008190;28;20430;-74
2022/06/22 12:59:16;;;;;;;7.50;3.90;;;;;;;;;;5024987;28;20536;-74
2022/06/22 13:01:42;;;;;;;7.32;4.03;;;;;;;;;;5010009;28;20038;-74
2022/06/22 13:04:17;;;;;;;6.13;3.50;;;;;;;;;;5010256;28;20050;-75
2022/06/22 13:06:47;;;;;;;7.13;3.92;;;;;;;;;;5010833;28;20096;-74
2022/06/22 13:09:13;;;;;;;5.05;3.15;;;;;;;;;;5010835;28;20540;-74
2022/06/22 13:11:43;;;;;;;7.22;3.90;;;;;;;;;;5010333;28;20068;-74
2022/06/22 13:14:41;;;;;;;5.57;3.53;;;;;;;;;;5008823;28;20077;-75
2022/06/22 13:17:19;;;;;;;6.97;3.60;;;;;;;;;;4985178;28;20053;-74
2022/06/22 13:20:00;;;;;;;4.68;2.85;;;;;;;;;;5005664;28;20541;-75
2022/06/22 13:22:38;;;;;;;4.93;3.08;;;;;;;;;;5009195;28;20054;-74
2022/06/22 13:25:22;;;;;;;6.05;3.40;;;;;;;;;;5011195;28;20049;-74
2022/06/22 13:27:49;;;;;;;5.50;2.97;;;;;;;;;;5008028;28;20168;-74
2022/06/22 13:30:34;;;;;;;7.78;3.33;;;;;;;;;;5009703;28;20054;-74
2022/06/22 13:33:03;;;;;;;6.43;2.90;;;;;;;;;;5014748;28;20046;-75
2022/06/22 13:35:36;;;;;;;3.92;2.97;;;;;;;;;;5020142;28;20046;-74
2022/06/22 13:38:05;;;;;;;6.70;3.40;;;;;;;;;;5009520;28;20056;-75
2022/06/22 13:40:31;;;;;;;3.92;2.60;;;;;;;;;;5010790;28;20054;-75
2022/06/22 13:43:08;;;;;;;4.53;2.85;;;;;;;;;;5010975;28;20052;-74
2022/06/22 13:45:41;;;;;;;5.32;2.95;;;;;;;;;;5010241;28;20049;-74
2022/06/22 13:48:07;;;;;;;4.78;2.53;;;;;;;;;;5011400;28;20049;-75
2022/06/22 13:51:13;;;;;;;7.45;3.20;;;;;;;;;;5010111;28;20433;-74
2022/06/22 13:53:54;;;;;;;4.25;2.63;;;;;;;;;;5008382;28;20050;-74
2022/06/22 13:56:43;;;;;;;6.53;2.72;;;;;;;;;;5008616;28;20042;-74
2022/06/22 13:59:35;;;;;;;4.20;2.45;;;;;;;;;;4999498;28;20058;-74
2022/06/22 14:02:06;;;;;;;4.20;2.40;;;;;;;;;;4998351;28;20067;-75
2022/06/22 14:04:35;;;;;;;5.32;2.90;;;;;;;;;;5011079;28;20425;-75
2022/06/22 14:07:25;;;;;;;4.80;2.45;;;;;;;;;;5011553;28;20498;-75
2022/06/22 14:10:05;;;;;;;3.40;2.60;;;;;;;;;;5004636;28;20104;-75
2022/06/22 14:12:50;;;;;;;3.65;2.60;;;;;;;;;;5008235;28;20050;-75
2022/06/22 14:15:26;;;;;;;4.65;2.58;;;;;;;;;;5013659;28;20045;-75
2022/06/22 14:17:58;;;;;;;4.60;2.50;;;;;;;;;;5002456;28;20058;-75
2022/06/22 14:20:43;;;;;;;5.10;2.40;;;;;;;;;;4993634;28;20509;-75
2022/06/22 14:23:12;;;;;;;5.40;2.70;;;;;;;;;;5008236;28;20340;-74
2022/06/22 14:25:55;;;;;;;3.00;2.28;;;;;;;;;;5012601;28;20050;-74
2022/06/22 14:28:27;;;;;;;2.85;2.45;;;;;;;;;;5012231;28;20045;-75
2022/06/22 14:31:00;;;;;;;4.38;2.65;;;;;;;;;;5012081;28;20042;-75
2022/06/22 14:33:34;;;;;;;2.38;2.17;;;;;;;;;;5007942;28;20213;-75
2022/06/22 14:36:00;;;;;;;4.95;2.75;;;;;;;;;;5010496;28;20482;-74
2022/06/22 14:38:39;;;;;;;4.82;2.50;;;;;;;;;;5007388;28;20056;-75
2022/06/22 14:41:18;;;;;;;3.38;2.40;;;;;;;;;;5010332;28;20052;-75
2022/06/22 14:43:48;;;;;;;3.35;2.40;;;;;;;;;;5011458;28;20041;-75
2022/06/22 14:46:22;;;;;;;4.13;2.53;;;;;;;;;;5007667;28;20140;-75
2022/06/22 14:49:03;;;;;;;3.53;2.60;;;;;;;;;;5003894;28;20053;-75
2022/06/22 14:52:02;;;;;;;4.65;2.10;;;;;;;;;;5007491;28;20085;-75
2022/06/22 14:54:43;;;;;;;3.55;2.15;;;;;;;;;;4997165;28;20501;-75
2022/06/22 14:57:17;;;;;;;2.88;2.30;;;;;;;;;;5006092;28;20092;-75